Time;durP1;ratioP1;P1;durP2;ratioP2;P2;SDS_P1;SDS_P2;PMS_P1;PMS_P2;Temp;Humidity;BMP_temperature;BMP_pressure;BME280_temperature;BME280_humidity;BME280_pressure;Samples;Min_cycle;Max_cycle;Signal;HPM_P1;HPM_P2
2022/04/07 00:00:58;;;;;;;8.70;4.10;;;16.80;79.20;;;;;;2005565;28;20185;-78
2022/04/07 00:01:56;;;;;;;5.77;4.07;;;16.80;79.20;;;;;;2005672;28;20257;-78
2022/04/07 00:02:55;;;;;;;8.10;5.17;;;16.80;79.40;;;;;;2005449;28;20177;-78
2022/04/07 00:03:54;;;;;;;6.77;4.50;;;16.80;79.90;;;;;;2005449;28;20181;-78
2022/04/07 00:04:54;;;;;;;6.77;4.00;;;16.80;79.30;;;;;;2005362;28;20535;-76
2022/04/07 00:05:52;;;;;;;7.45;4.57;;;16.80;79.30;;;;;;2005565;28;20404;-78
2022/04/07 00:06:51;;;;;;;4.83;4.33;;;16.80;79.30;;;;;;2005402;28;20239;-78
2022/04/07 00:07:49;;;;;;;5.40;3.70;;;16.80;79.30;;;;;;2005666;28;20169;-78
2022/04/07 00:08:49;;;;;;;6.20;4.23;;;16.80;79.20;;;;;;2005462;28;20259;-78
2022/04/07 00:09:49;;;;;;;6.55;4.55;;;16.80;79.30;;;;;;2005422;28;20224;-78
2022/04/07 00:10:48;;;;;;;5.05;4.40;;;16.80;79.40;;;;;;2004927;28;20253;-78
2022/04/07 00:11:47;;;;;;;6.93;4.27;;;16.80;79.20;;;;;;2005514;28;20659;-78
2022/04/07 00:12:46;;;;;;;7.13;4.40;;;16.80;79.20;;;;;;2004884;28;20251;-77
2022/04/07 00:13:45;;;;;;;5.07;4.37;;;16.80;79.20;;;;;;2004879;28;20169;-77
2022/04/07 00:14:43;;;;;;;6.20;4.20;;;16.80;79.10;;;;;;2005486;28;20648;-77
2022/04/07 00:15:42;;;;;;;7.43;4.30;;;16.80;79.20;;;;;;2005372;28;20172;-77
2022/04/07 00:16:40;;;;;;;5.87;4.07;;;16.80;79.20;;;;;;2005364;28;20196;-77
2022/04/07 00:17:39;;;;;;;8.00;4.43;;;16.80;79.30;;;;;;2005421;28;20711;-79
2022/04/07 00:18:37;;;;;;;6.80;4.57;;;16.80;79.20;;;;;;2004829;28;20169;-77
2022/04/07 00:19:37;;;;;;;6.55;4.75;;;16.80;79.30;;;;;;2005005;28;20616;-77
2022/04/07 00:20:36;;;;;;;6.30;4.85;;;16.80;79.20;;;;;;2004748;28;20215;-78
2022/04/07 00:21:42;;;;;;;7.53;4.90;;;16.90;79.30;;;;;;2004869;28;20229;-78
2022/04/07 00:22:41;;;;;;;5.60;3.72;;;16.80;79.20;;;;;;2005789;28;20153;-80
2022/04/07 00:23:40;;;;;;;6.22;4.43;;;16.70;79.00;;;;;;2005411;28;20216;-79
2022/04/07 00:24:39;;;;;;;6.90;4.53;;;16.70;79.10;;;;;;2005195;28;20180;-77
2022/04/07 00:25:37;;;;;;;8.53;4.63;;;16.70;79.20;;;;;;2005408;28;20212;-78
2022/04/07 00:26:36;;;;;;;6.40;4.23;;;16.70;79.20;;;;;;2005139;28;20192;-77
2022/04/07 00:27:36;;;;;;;5.30;4.00;;;16.70;79.10;;;;;;2005434;28;20663;-77
2022/04/07 00:28:34;;;;;;;6.68;3.88;;;16.80;79.20;;;;;;2005372;28;20173;-77
2022/04/07 00:29:33;;;;;;;7.87;4.30;;;16.80;79.20;;;;;;2005259;28;20301;-78
2022/04/07 00:30:32;;;;;;;7.30;4.17;;;16.80;79.20;;;;;;2005293;28;20205;-79
2022/04/07 00:31:39;;;;;;;5.23;3.93;;;16.80;79.30;;;;;;2005355;28;20396;-77
2022/04/07 00:32:42;;;;;;;5.35;4.10;;;16.80;79.20;;;;;;2004592;28;20168;-77
2022/04/07 00:33:40;;;;;;;8.18;4.53;;;16.80;79.20;;;;;;2004581;28;20561;-77
2022/04/07 00:34:39;;;;;;;7.20;4.50;;;16.80;79.20;;;;;;2005286;28;20204;-79
2022/04/07 00:35:37;;;;;;;5.00;4.27;;;16.70;79.00;;;;;;2005186;28;20172;-78
2022/04/07 00:36:38;;;;;;;7.60;4.37;;;16.70;79.10;;;;;;2005209;28;20207;-78
2022/04/07 00:37:37;;;;;;;6.80;4.47;;;16.70;79.10;;;;;;2005234;28;20169;-78
2022/04/07 00:38:36;;;;;;;5.53;4.35;;;16.80;79.20;;;;;;2005225;28;20176;-78
2022/04/07 00:39:35;;;;;;;5.97;3.53;;;16.80;79.30;;;;;;2005235;28;20189;-78
2022/04/07 00:40:33;;;;;;;6.37;4.93;;;16.80;79.20;;;;;;2005238;28;20172;-78
2022/04/07 00:41:32;;;;;;;6.00;4.17;;;16.80;79.20;;;;;;2005376;28;20169;-77
2022/04/07 00:42:31;;;;;;;5.80;4.40;;;16.70;79.00;;;;;;2005392;28;20226;-80
2022/04/07 00:43:34;;;;;;;5.50;3.60;;;16.70;79.00;;;;;;2005392;28;20177;-77
2022/04/07 00:44:33;;;;;;;6.07;4.13;;;16.70;79.00;;;;;;2005337;28;20165;-78
2022/04/07 00:45:32;;;;;;;7.43;5.17;;;16.70;79.10;;;;;;2004922;28;20196;-78
2022/04/07 00:46:30;;;;;;;7.47;4.83;;;16.70;79.10;;;;;;2004776;28;20271;-78
2022/04/07 00:47:29;;;;;;;6.13;3.80;;;16.70;79.20;;;;;;2005252;28;20169;-78
2022/04/07 00:48:28;;;;;;;6.72;4.32;;;16.70;79.10;;;;;;2005263;28;20256;-78
2022/04/07 00:49:27;;;;;;;4.75;3.30;;;16.80;79.20;;;;;;2004979;28;20243;-78
2022/04/07 00:50:26;;;;;;;5.63;3.50;;;16.80;79.10;;;;;;2005272;28;20574;-78
2022/04/07 00:51:24;;;;;;;8.67;4.33;;;16.80;79.20;;;;;;2004442;28;20188;-77
2022/04/07 00:52:23;;;;;;;5.43;3.53;;;16.70;79.10;;;;;;2004644;28;20180;-78
2022/04/07 00:53:26;;;;;;;6.65;3.90;;;16.80;79.20;;;;;;2005247;28;20252;-77
2022/04/07 00:54:26;;;;;;;5.70;4.15;;;16.80;79.00;;;;;;2005184;28;20307;-77
2022/04/07 00:55:25;;;;;;;5.25;4.15;;;16.80;79.20;;;;;;2005214;28;20252;-78
2022/04/07 00:56:25;;;;;;;4.90;4.40;;;16.70;79.00;;;;;;2005177;28;20228;-77
2022/04/07 00:57:24;;;;;;;5.35;3.92;;;16.70;79.10;;;;;;2005171;28;20169;-77
2022/04/07 00:58:23;;;;;;;6.07;4.27;;;16.70;79.00;;;;;;2005255;28;20231;-77
2022/04/07 00:59:23;;;;;;;6.28;3.75;;;16.70;79.10;;;;;;2005068;28;20473;-77
2022/04/07 01:00:24;;;;;;;8.45;4.93;;;16.70;79.00;;;;;;2005193;28;20227;-77
2022/04/07 01:01:27;;;;;;;7.00;4.25;;;16.80;79.20;;;;;;2005052;28;20263;-77
2022/04/07 01:02:26;;;;;;;5.28;3.70;;;16.70;79.00;;;;;;2004399;28;20268;-77
2022/04/07 01:03:25;;;;;;;5.30;3.30;;;16.70;79.00;;;;;;2004647;28;20176;-77
2022/04/07 01:04:24;;;;;;;8.32;4.20;;;16.70;79.10;;;;;;2004455;28;20181;-77
2022/04/07 01:05:23;;;;;;;6.87;4.10;;;16.70;79.00;;;;;;2004389;28;20203;-77
2022/04/07 01:06:22;;;;;;;12.10;4.22;;;16.70;79.00;;;;;;2005008;28;20610;-77
2022/04/07 01:07:21;;;;;;;5.37;4.10;;;16.70;79.00;;;;;;2005224;28;20177;-78
2022/04/07 01:08:20;;;;;;;5.10;4.03;;;16.70;79.10;;;;;;2005096;28;20177;-77
2022/04/07 01:09:19;;;;;;;6.40;4.75;;;16.70;79.00;;;;;;2004397;28;20228;-77
2022/04/07 01:10:20;;;;;;;4.90;3.25;;;16.70;79.00;;;;;;2004410;28;20271;-78
2022/04/07 01:11:19;;;;;;;5.68;3.50;;;16.60;78.80;;;;;;2005108;28;20201;-78
2022/04/07 01:12:18;;;;;;;6.53;4.50;;;16.70;78.90;;;;;;2005334;28;20176;-78
2022/04/07 01:13:16;;;;;;;5.40;3.63;;;16.70;78.90;;;;;;2004893;28;20410;-78
2022/04/07 01:14:15;;;;;;;5.30;4.00;;;16.70;79.00;;;;;;2004885;28;20655;-78
2022/04/07 01:15:13;;;;;;;4.57;3.63;;;16.70;79.00;;;;;;2004901;28;20165;-78
2022/04/07 01:16:13;;;;;;;4.53;3.37;;;16.70;79.00;;;;;;2004923;28;20177;-78
2022/04/07 01:17:11;;;;;;;7.63;3.80;;;16.70;79.00;;;;;;2005125;28;20650;-77
2022/04/07 01:18:10;;;;;;;6.43;4.13;;;16.70;79.00;;;;;;2005183;28;20177;-77
2022/04/07 01:19:09;;;;;;;4.83;3.77;;;16.70;78.90;;;;;;2004902;28;20165;-78
2022/04/07 01:20:08;;;;;;;5.80;3.50;;;16.70;78.90;;;;;;2004825;28;20416;-77
2022/04/07 01:21:10;;;;;;;6.80;3.35;;;16.80;79.00;;;;;;2004926;28;20243;-77
2022/04/07 01:22:08;;;;;;;5.95;3.45;;;16.80;78.90;;;;;;2005193;28;20174;-78
2022/04/07 01:23:08;;;;;;;4.10;3.30;;;16.80;78.90;;;;;;2004938;28;20184;-79
2022/04/07 01:24:09;;;;;;;4.10;3.58;;;16.80;78.90;;;;;;2005105;28;20169;-79
2022/04/07 01:25:08;;;;;;;7.10;3.80;;;16.70;78.80;;;;;;2005041;28;20196;-77
2022/04/07 01:26:08;;;;;;;8.43;4.47;;;16.80;78.90;;;;;;2004920;28;20226;-79
2022/04/07 01:27:07;;;;;;;6.15;3.50;;;16.70;79.50;;;;;;2005021;28;20513;-79
2022/04/07 01:28:06;;;;;;;3.75;3.05;;;16.80;78.90;;;;;;2004956;28;20247;-79
2022/04/07 01:29:10;;;;;;;5.33;3.73;;;16.80;79.00;;;;;;2004848;28;20272;-77
2022/04/07 01:30:09;;;;;;;5.75;4.00;;;16.70;78.80;;;;;;2004246;28;20526;-77
2022/04/07 01:31:09;;;;;;;6.30;3.50;;;16.80;78.90;;;;;;2004286;28;20185;-77
2022/04/07 01:32:16;;;;;;;4.45;3.58;;;16.70;78.80;;;;;;2004919;28;20179;-77
2022/04/07 01:33:14;;;;;;;5.80;3.70;;;16.70;78.80;;;;;;2005074;28;20165;-77
2022/04/07 01:34:14;;;;;;;6.00;3.70;;;16.70;78.80;;;;;;2004920;28;20256;-77
2022/04/07 01:35:15;;;;;;;5.78;4.22;;;16.70;78.80;;;;;;2004285;28;20173;-77
2022/04/07 01:36:14;;;;;;;5.13;3.30;;;16.70;78.80;;;;;;2004074;28;20177;-77
2022/04/07 01:37:13;;;;;;;5.60;3.83;;;16.70;78.80;;;;;;2004850;28;20208;-77
2022/04/07 01:38:12;;;;;;;5.90;3.80;;;16.70;78.80;;;;;;2004936;28;20403;-77
2022/04/07 01:39:13;;;;;;;8.60;4.25;;;16.80;78.90;;;;;;2004952;28;20411;-77
2022/04/07 01:40:21;;;;;;;5.75;3.85;;;16.80;78.90;;;;;;2004845;28;20604;-77
2022/04/07 01:41:21;;;;;;;4.93;3.88;;;16.80;78.90;;;;;;2003993;28;20193;-78
2022/04/07 01:42:19;;;;;;;5.68;3.58;;;16.70;78.80;;;;;;2004062;28;20181;-77
2022/04/07 01:43:18;;;;;;;5.97;3.70;;;16.70;78.80;;;;;;2004763;28;20227;-77
2022/04/07 01:44:18;;;;;;;6.10;3.33;;;16.70;78.80;;;;;;2003989;28;20274;-78
2022/04/07 01:45:17;;;;;;;5.60;3.40;;;16.70;78.80;;;;;;2004110;28;20420;-80
2022/04/07 01:46:17;;;;;;;8.50;3.43;;;16.70;78.80;;;;;;2004682;28;20192;-78
2022/04/07 01:47:20;;;;;;;4.15;3.28;;;16.70;78.80;;;;;;2004802;28;20592;-78
2022/04/07 01:48:19;;;;;;;6.00;3.83;;;16.70;78.90;;;;;;2004300;28;20209;-78
2022/04/07 01:49:20;;;;;;;6.47;3.40;;;16.70;78.90;;;;;;2004100;28;20661;-78
2022/04/07 01:50:20;;;;;;;3.90;3.30;;;16.70;78.90;;;;;;2004778;28;20621;-76
2022/04/07 01:51:21;;;;;;;4.28;3.00;;;16.70;78.90;;;;;;2004667;28;20177;-79
2022/04/07 01:52:21;;;;;;;6.68;4.15;;;16.70;78.90;;;;;;2010340;28;20287;-77
2022/04/07 01:53:21;;;;;;;6.13;3.95;;;16.70;78.90;;;;;;2012160;28;20201;-78
2022/04/07 01:54:19;;;;;;;4.60;3.30;;;16.70;78.90;;;;;;2011520;28;20169;-77
2022/04/07 01:55:18;;;;;;;5.43;3.50;;;16.70;78.90;;;;;;2004979;28;20183;-77
2022/04/07 01:56:20;;;;;;;7.43;3.50;;;16.70;78.90;;;;;;2005020;28;20416;-78
2022/04/07 01:57:23;;;;;;;5.30;3.45;;;16.70;78.80;;;;;;2004996;28;20169;-78
2022/04/07 01:58:22;;;;;;;5.00;3.42;;;16.80;78.90;;;;;;2004002;28;20176;-78
2022/04/07 01:59:21;;;;;;;5.53;3.50;;;16.70;78.90;;;;;;2004845;28;20190;-78
2022/04/07 02:00:20;;;;;;;5.28;3.25;;;16.70;78.80;;;;;;2005068;28;20536;-78
2022/04/07 02:01:18;;;;;;;4.70;3.57;;;16.70;78.80;;;;;;2005114;28;20219;-78
2022/04/07 02:02:21;;;;;;;5.30;3.17;;;16.70;78.80;;;;;;2005075;28;20226;-77
2022/04/07 02:03:20;;;;;;;4.35;2.65;;;16.70;78.80;;;;;;2004920;28;20186;-78
2022/04/07 02:04:19;;;;;;;5.00;3.47;;;16.70;78.80;;;;;;2004477;28;20646;-78
2022/04/07 02:05:17;;;;;;;5.43;3.30;;;16.60;78.80;;;;;;2004675;28;20267;-78
2022/04/07 02:06:18;;;;;;;4.30;3.00;;;16.70;78.90;;;;;;2004767;28;20177;-77
2022/04/07 02:07:16;;;;;;;4.90;3.50;;;16.70;78.90;;;;;;2004709;28;20181;-77
2022/04/07 02:08:15;;;;;;;4.43;3.20;;;16.70;78.80;;;;;;2004779;28;20267;-78
2022/04/07 02:09:14;;;;;;;7.00;3.72;;;16.70;78.90;;;;;;2004033;28;20185;-77
2022/04/07 02:10:14;;;;;;;4.20;3.50;;;16.70;78.90;;;;;;2004107;28;20205;-77
2022/04/07 02:11:13;;;;;;;4.85;3.00;;;16.70;78.80;;;;;;2004679;28;20597;-79
2022/04/07 02:12:11;;;;;;;4.50;2.93;;;16.70;78.90;;;;;;2004840;28;20176;-78
2022/04/07 02:13:13;;;;;;;4.60;3.10;;;16.70;78.90;;;;;;2004716;28;20470;-78
2022/04/07 02:14:12;;;;;;;3.88;3.05;;;16.70;78.90;;;;;;1996137;28;20205;-78
2022/04/07 02:15:11;;;;;;;4.37;3.17;;;16.70;78.80;;;;;;1996315;28;20181;-78
2022/04/07 02:16:11;;;;;;;4.20;3.40;;;16.70;78.80;;;;;;2004137;28;20259;-78
2022/04/07 02:17:10;;;;;;;5.30;3.10;;;16.70;78.80;;;;;;2004923;28;20322;-79
2022/04/07 02:18:08;;;;;;;3.70;2.67;;;16.70;78.80;;;;;;2004271;28;20508;-78
2022/04/07 02:19:08;;;;;;;4.10;2.90;;;16.70;78.80;;;;;;2004088;28;20538;-79
2022/04/07 02:20:09;;;;;;;5.05;3.30;;;16.70;78.80;;;;;;2004685;28;20169;-78
2022/04/07 02:21:08;;;;;;;5.32;3.22;;;16.70;78.80;;;;;;2004908;28;20564;-78
2022/04/07 02:22:06;;;;;;;3.80;2.80;;;16.70;78.80;;;;;;2004772;28;20243;-78
2022/04/07 02:23:05;;;;;;;5.30;3.33;;;16.70;78.80;;;;;;2004859;28;20184;-78
2022/04/07 02:24:05;;;;;;;5.40;3.13;;;16.70;78.80;;;;;;2004691;28;20176;-78
2022/04/07 02:25:05;;;;;;;3.88;3.35;;;16.70;78.80;;;;;;1996130;28;20197;-79
2022/04/07 02:26:11;;;;;;;8.00;3.33;;;16.70;78.80;;;;;;1996268;28;20660;-78
2022/04/07 02:27:09;;;;;;;3.13;2.67;;;16.70;78.80;;;;;;2004645;28;20218;-78
2022/04/07 02:28:08;;;;;;;3.30;2.83;;;16.70;78.80;;;;;;2004432;28;20227;-78
2022/04/07 02:29:06;;;;;;;3.57;2.70;;;16.70;78.80;;;;;;2004670;28;20208;-78
2022/04/07 02:30:11;;;;;;;5.20;3.33;;;16.70;78.80;;;;;;2004301;28;20232;-78
2022/04/07 02:31:11;;;;;;;3.83;2.58;;;16.70;78.80;;;;;;2002527;28;20256;-78
2022/04/07 02:32:13;;;;;;;4.15;2.60;;;16.70;78.80;;;;;;2004705;28;20166;-78
2022/04/07 02:33:12;;;;;;;3.10;2.72;;;16.70;78.80;;;;;;2004443;28;20211;-78
2022/04/07 02:34:11;;;;;;;4.57;3.50;;;16.70;78.80;;;;;;2005648;28;20173;-78
2022/04/07 02:35:11;;;;;;;4.40;2.83;;;16.70;78.70;;;;;;2006292;28;20207;-78
2022/04/07 02:36:10;;;;;;;4.93;3.20;;;16.70;78.70;;;;;;2006042;28;20173;-78
2022/04/07 02:37:09;;;;;;;3.30;2.60;;;16.70;78.70;;;;;;2006245;28;20184;-78
2022/04/07 02:38:08;;;;;;;3.35;2.80;;;16.70;78.70;;;;;;2006007;28;20597;-78
2022/04/07 02:39:06;;;;;;;4.03;2.87;;;16.70;78.70;;;;;;2005993;28;20168;-78
2022/04/07 02:40:06;;;;;;;6.00;2.97;;;16.70;78.70;;;;;;2006084;28;20169;-78
2022/04/07 02:41:06;;;;;;;5.05;3.00;;;16.70;78.70;;;;;;2006203;28;20260;-78
2022/04/07 02:42:05;;;;;;;4.15;3.20;;;16.70;78.70;;;;;;2006350;28;20268;-78
2022/04/07 02:43:05;;;;;;;5.40;3.23;;;16.70;78.70;;;;;;2006193;28;20472;-78
2022/04/07 02:44:04;;;;;;;6.00;3.05;;;16.70;78.70;;;;;;2006183;28;20525;-78
2022/04/07 02:45:03;;;;;;;5.30;2.47;;;16.70;78.70;;;;;;2005971;28;20177;-78
2022/04/07 02:46:04;;;;;;;4.35;3.17;;;16.70;78.70;;;;;;2006073;28;20185;-77
2022/04/07 02:47:04;;;;;;;5.07;3.00;;;16.70;78.70;;;;;;2005906;28;20212;-77
2022/04/07 02:48:03;;;;;;;3.63;2.70;;;16.70;78.60;;;;;;2006053;28;20247;-78
2022/04/07 02:49:01;;;;;;;4.07;2.80;;;16.70;78.80;;;;;;2005902;28;20177;-78
2022/04/07 02:50:00;;;;;;;3.87;3.03;;;16.60;78.70;;;;;;2005923;28;20191;-78
2022/04/07 02:50:59;;;;;;;5.10;3.43;;;16.70;78.70;;;;;;2005370;28;20224;-78
2022/04/07 02:51:58;;;;;;;3.85;3.03;;;16.60;78.60;;;;;;2005423;28;20575;-77
2022/04/07 02:52:58;;;;;;;3.40;2.53;;;16.60;78.60;;;;;;2006215;28;20192;-78
2022/04/07 02:53:58;;;;;;;4.50;3.15;;;16.70;78.80;;;;;;2006027;28;20204;-78
2022/04/07 02:54:56;;;;;;;4.25;3.13;;;16.70;78.80;;;;;;2006026;28;20542;-78
2022/04/07 02:55:55;;;;;;;6.47;3.67;;;16.70;78.70;;;;;;2005306;28;20172;-78
2022/04/07 02:56:55;;;;;;;3.80;3.30;;;16.70;78.80;;;;;;1997569;28;20228;-79
2022/04/07 02:57:58;;;;;;;3.67;2.60;;;16.70;78.70;;;;;;2005291;28;20180;-79
2022/04/07 02:58:57;;;;;;;6.65;3.40;;;16.70;78.80;;;;;;2006121;28;20207;-79
2022/04/07 02:59:58;;;;;;;4.90;2.83;;;16.70;78.80;;;;;;2006017;28;20385;-78
2022/04/07 03:00:57;;;;;;;3.28;2.88;;;16.80;78.90;;;;;;2006102;28;20678;-78
2022/04/07 03:01:56;;;;;;;3.70;2.80;;;16.80;78.90;;;;;;2006220;28;20205;-78
2022/04/07 03:02:55;;;;;;;3.67;2.58;;;16.70;78.70;;;;;;2005870;28;20188;-78
2022/04/07 03:03:55;;;;;;;3.80;2.80;;;16.70;78.80;;;;;;2005551;28;20221;-78
2022/04/07 03:04:54;;;;;;;4.07;3.25;;;16.70;78.80;;;;;;2006085;28;20165;-77
2022/04/07 03:05:52;;;;;;;3.17;2.60;;;16.70;78.80;;;;;;2006429;28;20177;-79
2022/04/07 03:06:51;;;;;;;4.27;2.50;;;16.70;78.70;;;;;;2005913;28;20201;-80
2022/04/07 03:07:50;;;;;;;3.25;2.75;;;16.70;78.80;;;;;;2006087;28;20207;-79
2022/04/07 03:08:49;;;;;;;3.90;2.73;;;16.70;78.80;;;;;;2005150;28;20177;-79
2022/04/07 03:09:48;;;;;;;4.70;2.87;;;16.70;78.70;;;;;;2005183;28;20197;-79
2022/04/07 03:10:48;;;;;;;3.47;2.75;;;16.70;78.80;;;;;;2005761;28;20419;-77
2022/04/07 03:11:47;;;;;;;4.70;3.00;;;16.70;78.70;;;;;;2005145;28;20316;-77
2022/04/07 03:12:45;;;;;;;3.87;2.87;;;16.70;79.30;;;;;;2005304;28;20173;-78
2022/04/07 03:13:44;;;;;;;4.00;2.50;;;16.70;78.70;;;;;;2005848;28;20471;-78
2022/04/07 03:14:43;;;;;;;4.03;2.77;;;16.70;78.70;;;;;;2005677;28;20169;-77
2022/04/07 03:15:41;;;;;;;3.13;2.43;;;16.70;78.70;;;;;;2005684;28;20183;-78
2022/04/07 03:16:41;;;;;;;5.20;2.90;;;16.70;78.60;;;;;;2005701;28;20185;-78
2022/04/07 03:17:39;;;;;;;4.85;2.78;;;16.70;78.70;;;;;;2005941;28;20170;-79
2022/04/07 03:18:38;;;;;;;2.83;2.50;;;16.70;78.80;;;;;;2005890;28;20256;-79
2022/04/07 03:19:37;;;;;;;4.50;2.43;;;16.60;78.70;;;;;;2005810;28;20247;-78
2022/04/07 03:20:35;;;;;;;2.77;2.57;;;16.70;78.80;;;;;;2005873;28;20174;-78
2022/04/07 03:21:34;;;;;;;6.03;3.10;;;16.70;78.70;;;;;;2005828;28;20408;-79
2022/04/07 03:22:32;;;;;;;4.60;2.80;;;16.70;78.70;;;;;;2006003;28;20533;-79
2022/04/07 03:23:31;;;;;;;3.40;3.00;;;16.70;78.80;;;;;;2005996;28;20252;-78
2022/04/07 03:24:30;;;;;;;4.57;3.00;;;16.70;78.70;;;;;;2005888;28;20176;-78
2022/04/07 03:25:28;;;;;;;3.83;3.00;;;16.70;78.80;;;;;;2005943;28;20203;-78
2022/04/07 03:26:27;;;;;;;4.90;2.77;;;16.60;78.50;;;;;;2005788;28;20640;-78
2022/04/07 03:27:26;;;;;;;4.60;3.10;;;16.70;78.80;;;;;;2005783;28;20457;-79
2022/04/07 03:28:25;;;;;;;7.15;2.80;;;16.70;78.80;;;;;;2005839;28;20261;-79
2022/04/07 03:29:26;;;;;;;4.27;2.57;;;16.70;78.70;;;;;;2005850;28;20188;-78
2022/04/07 03:30:25;;;;;;;3.42;2.47;;;16.70;78.70;;;;;;2005005;28;20699;-78
2022/04/07 03:31:23;;;;;;;4.33;2.70;;;16.70;78.80;;;;;;1997258;28;20252;-78
2022/04/07 03:32:23;;;;;;;4.13;3.00;;;16.70;78.80;;;;;;2004564;28;20528;-79
2022/04/07 03:33:22;;;;;;;3.38;2.60;;;16.60;78.60;;;;;;2005684;28;20532;-78
2022/04/07 03:34:20;;;;;;;3.23;2.60;;;16.70;78.70;;;;;;2005659;28;20192;-78
2022/04/07 03:35:19;;;;;;;4.50;2.97;;;16.70;78.60;;;;;;2005731;28;20637;-78
2022/04/07 03:36:17;;;;;;;3.30;2.40;;;16.70;78.70;;;;;;2005631;28;20212;-78
2022/04/07 03:37:18;;;;;;;5.63;3.63;;;16.70;78.60;;;;;;2005694;28;20540;-78
2022/04/07 03:38:18;;;;;;;4.40;2.75;;;16.60;78.50;;;;;;2005638;28;20185;-78
2022/04/07 03:39:17;;;;;;;5.15;3.28;;;16.70;78.60;;;;;;2005573;28;20188;-78
2022/04/07 03:40:15;;;;;;;2.50;2.30;;;16.60;78.60;;;;;;2005700;28;20671;-78
2022/04/07 03:41:15;;;;;;;4.23;2.40;;;16.70;78.60;;;;;;2005596;28;20255;-78
2022/04/07 03:42:13;;;;;;;4.05;2.70;;;16.60;78.50;;;;;;2005732;28;20408;-78
2022/04/07 03:43:12;;;;;;;3.83;2.90;;;16.60;78.70;;;;;;2005834;28;20229;-78
2022/04/07 03:44:11;;;;;;;4.50;2.27;;;16.60;78.60;;;;;;2005831;28;20432;-78
2022/04/07 03:45:09;;;;;;;4.43;2.80;;;16.70;78.70;;;;;;2005047;28;20227;-78
2022/04/07 03:46:09;;;;;;;2.53;2.10;;;16.60;78.50;;;;;;2005249;28;20208;-79
2022/04/07 03:47:09;;;;;;;3.75;2.67;;;16.60;78.60;;;;;;2005741;28;20572;-79
2022/04/07 03:48:07;;;;;;;3.45;2.30;;;16.70;78.60;;;;;;2005618;28;20192;-79
2022/04/07 03:49:06;;;;;;;3.07;2.77;;;16.70;78.60;;;;;;2004820;28;20229;-79
2022/04/07 03:50:05;;;;;;;3.47;2.50;;;16.70;78.70;;;;;;2005015;28;20559;-79
2022/04/07 03:51:05;;;;;;;3.40;2.60;;;16.60;78.50;;;;;;2005517;28;20173;-78
2022/04/07 03:52:04;;;;;;;3.55;2.53;;;16.70;78.60;;;;;;2005394;28;20173;-78
2022/04/07 03:53:03;;;;;;;5.35;3.13;;;16.60;78.50;;;;;;2005529;28;20231;-79
2022/04/07 03:54:02;;;;;;;2.90;2.43;;;16.60;78.70;;;;;;2004882;28;20169;-79
2022/04/07 03:55:00;;;;;;;3.07;2.77;;;16.60;78.60;;;;;;2005025;28;20223;-78
2022/04/07 03:55:59;;;;;;;3.50;2.37;;;16.60;78.50;;;;;;2005583;28;20218;-78
2022/04/07 03:56:57;;;;;;;3.93;2.53;;;16.70;78.60;;;;;;2004718;28;20291;-78
2022/04/07 03:57:56;;;;;;;4.83;3.33;;;16.60;78.60;;;;;;2004845;28;20173;-78
2022/04/07 03:58:55;;;;;;;2.97;2.40;;;16.60;78.50;;;;;;2005514;28;20165;-79
2022/04/07 03:59:54;;;;;;;4.47;3.25;;;16.60;78.50;;;;;;2005547;28;20185;-78
2022/04/07 04:00:53;;;;;;;3.20;2.50;;;16.60;78.60;;;;;;2005604;28;20542;-78
2022/04/07 04:01:52;;;;;;;3.83;2.75;;;16.70;78.50;;;;;;2005043;28;20211;-78
2022/04/07 04:02:50;;;;;;;3.70;2.33;;;16.60;78.50;;;;;;2005110;28;20181;-78
2022/04/07 04:03:49;;;;;;;3.03;2.10;;;16.70;78.70;;;;;;2005320;28;20173;-78
2022/04/07 04:04:47;;;;;;;4.47;2.87;;;16.60;78.50;;;;;;2005610;28;20231;-78
2022/04/07 04:05:46;;;;;;;4.30;2.40;;;16.60;78.60;;;;;;2005625;28;20180;-78
2022/04/07 04:06:45;;;;;;;3.97;2.67;;;16.60;78.50;;;;;;2005427;28;20200;-79
2022/04/07 04:07:43;;;;;;;3.10;2.73;;;16.60;78.60;;;;;;2005670;28;20517;-78
2022/04/07 04:08:42;;;;;;;4.50;2.87;;;16.80;78.80;;;;;;2005457;28;20165;-79
2022/04/07 04:09:40;;;;;;;4.17;2.47;;;16.60;78.60;;;;;;2005413;28;20175;-78
2022/04/07 04:10:39;;;;;;;3.90;2.60;;;16.60;78.50;;;;;;2005672;28;20165;-78
2022/04/07 04:11:37;;;;;;;3.67;2.30;;;16.60;78.60;;;;;;2004789;28;20173;-77
2022/04/07 04:12:36;;;;;;;3.00;2.00;;;16.60;78.50;;;;;;2004800;28;20260;-78
2022/04/07 04:13:35;;;;;;;3.00;2.43;;;16.60;78.60;;;;;;2005390;28;20176;-78
2022/04/07 04:14:33;;;;;;;3.50;2.30;;;16.70;78.60;;;;;;2004715;28;20169;-78
2022/04/07 04:15:32;;;;;;;2.87;2.27;;;16.70;78.60;;;;;;2004815;28;20659;-78
2022/04/07 04:16:31;;;;;;;2.53;2.20;;;16.60;78.50;;;;;;2005394;28;20213;-78
2022/04/07 04:17:33;;;;;;;4.60;3.27;;;16.60;78.50;;;;;;2005255;28;20177;-78
2022/04/07 04:18:31;;;;;;;3.60;2.65;;;16.60;78.50;;;;;;2005448;28;20469;-78
2022/04/07 04:19:32;;;;;;;2.47;1.87;;;16.50;78.50;;;;;;2005231;28;20258;-77
2022/04/07 04:20:31;;;;;;;3.25;2.35;;;16.60;78.50;;;;;;2005279;28;20490;-78
2022/04/07 04:21:30;;;;;;;3.50;2.43;;;16.70;78.60;;;;;;2005294;28;20177;-78
2022/04/07 04:22:28;;;;;;;3.50;2.57;;;16.70;78.60;;;;;;2004818;28;20177;-78
2022/04/07 04:23:27;;;;;;;2.80;2.00;;;16.70;78.60;;;;;;2004870;28;20312;-78
2022/04/07 04:24:25;;;;;;;2.93;2.07;;;16.60;78.50;;;;;;2005212;28;20469;-79
2022/04/07 04:25:24;;;;;;;4.03;2.60;;;16.60;78.40;;;;;;2005279;28;20255;-77
2022/04/07 04:26:22;;;;;;;2.37;1.83;;;16.60;78.50;;;;;;2005101;28;20583;-78
2022/04/07 04:27:23;;;;;;;3.77;2.43;;;16.60;78.60;;;;;;2005390;28;20181;-79
2022/04/07 04:28:23;;;;;;;2.78;2.47;;;16.60;78.50;;;;;;2004609;28;20181;-77
2022/04/07 04:29:21;;;;;;;3.83;2.38;;;16.60;78.50;;;;;;2004935;28;20181;-79
2022/04/07 04:30:20;;;;;;;4.83;2.73;;;16.60;78.50;;;;;;2005454;28;20199;-80
2022/04/07 04:31:20;;;;;;;3.77;2.77;;;16.60;78.50;;;;;;2005287;28;20165;-79
2022/04/07 04:32:18;;;;;;;2.55;2.13;;;16.60;78.60;;;;;;2004613;28;20185;-78
2022/04/07 04:33:17;;;;;;;3.70;2.83;;;16.60;78.50;;;;;;2004811;28;20675;-77
2022/04/07 04:34:16;;;;;;;2.90;1.93;;;16.60;78.40;;;;;;2005452;28;20235;-78
2022/04/07 04:35:14;;;;;;;2.40;2.23;;;16.60;78.60;;;;;;2005710;28;20173;-78
2022/04/07 04:36:13;;;;;;;2.53;2.33;;;16.70;78.70;;;;;;2005601;28;20646;-78
2022/04/07 04:37:12;;;;;;;4.20;1.83;;;16.60;78.50;;;;;;2005704;28;20423;-78
2022/04/07 04:38:10;;;;;;;3.43;2.60;;;16.60;78.50;;;;;;2005324;28;20502;-78
2022/04/07 04:39:09;;;;;;;3.90;2.23;;;16.60;78.50;;;;;;2005280;28;20169;-78
2022/04/07 04:40:09;;;;;;;2.73;2.30;;;16.60;78.50;;;;;;2005405;28;20213;-78
2022/04/07 04:41:07;;;;;;;2.20;1.90;;;16.60;78.50;;;;;;2005072;28;20264;-78
2022/04/07 04:42:06;;;;;;;4.77;2.27;;;16.60;78.60;;;;;;2005462;28;20593;-78
2022/04/07 04:43:06;;;;;;;4.50;2.47;;;16.60;78.50;;;;;;2005650;28;20173;-79
2022/04/07 04:44:05;;;;;;;3.58;2.38;;;16.60;78.50;;;;;;2004793;28;20183;-79
2022/04/07 04:45:04;;;;;;;3.53;2.17;;;16.60;78.50;;;;;;2004761;28;20185;-79
2022/04/07 04:46:03;;;;;;;2.23;1.90;;;16.60;78.50;;;;;;2005419;28;20258;-79
2022/04/07 04:47:02;;;;;;;2.60;2.00;;;16.60;78.50;;;;;;2005417;28;20437;-78
2022/04/07 04:48:02;;;;;;;4.23;2.50;;;16.60;78.40;;;;;;2005453;28;20183;-78
2022/04/07 04:49:00;;;;;;;2.88;2.25;;;16.60;78.60;;;;;;2005153;28;20589;-78
2022/04/07 04:49:59;;;;;;;3.03;2.57;;;16.70;78.70;;;;;;2005304;28;20204;-78
2022/04/07 04:50:57;;;;;;;2.13;1.80;;;16.60;78.70;;;;;;2005515;28;20173;-78
2022/04/07 04:51:56;;;;;;;2.50;2.17;;;16.60;78.60;;;;;;2005318;28;20206;-78
2022/04/07 04:52:55;;;;;;;2.60;2.07;;;16.60;78.50;;;;;;2005391;28;20470;-78
2022/04/07 04:53:54;;;;;;;3.03;2.20;;;16.50;78.50;;;;;;2005412;28;20180;-78
2022/04/07 04:54:54;;;;;;;3.78;2.30;;;16.60;78.50;;;;;;2005446;28;20165;-77
2022/04/07 04:55:53;;;;;;;3.33;2.30;;;16.60;78.60;;;;;;2005270;28;20264;-78
2022/04/07 04:56:52;;;;;;;2.17;1.97;;;16.60;78.50;;;;;;2005056;28;20204;-79
2022/04/07 04:57:52;;;;;;;4.45;2.55;;;16.60;78.60;;;;;;2005395;28;20650;-78
2022/04/07 04:58:53;;;;;;;2.50;2.20;;;16.40;78.40;;;;;;2005365;28;20606;-78
2022/04/07 04:59:52;;;;;;;3.40;2.40;;;16.60;78.60;;;;;;2005584;28;20536;-78
2022/04/07 05:00:50;;;;;;;2.50;2.20;;;16.60;78.50;;;;;;2005390;28;20189;-78
2022/04/07 05:01:49;;;;;;;3.10;2.03;;;16.60;78.60;;;;;;2005272;28;20216;-78
2022/04/07 05:02:47;;;;;;;3.83;1.90;;;16.60;78.50;;;;;;2005134;28;20200;-79
2022/04/07 05:03:47;;;;;;;3.27;2.10;;;16.70;78.70;;;;;;2005360;28;20230;-78
2022/04/07 05:04:46;;;;;;;3.55;2.85;;;16.60;78.50;;;;;;2005248;28;20632;-78
2022/04/07 05:05:44;;;;;;;2.60;2.20;;;16.60;78.50;;;;;;2005307;28;20188;-77
2022/04/07 05:06:43;;;;;;;2.63;2.20;;;16.80;78.70;;;;;;2004557;28;20228;-77
2022/04/07 05:07:41;;;;;;;3.47;2.53;;;16.50;78.40;;;;;;2004808;28;20177;-78
2022/04/07 05:08:41;;;;;;;2.77;2.10;;;16.60;78.50;;;;;;2005185;28;20539;-78
2022/04/07 05:09:40;;;;;;;3.42;2.10;;;16.60;78.50;;;;;;2005396;28;20173;-78